Dallas, Texas
Traffic Map
Current Weather Conditions
Dallas, Texas
Overcast
Overcast
60°
Feels Like: 60°
Wind Chill: 60° Ceiling: 800
Heat Index: 60° Visibility: 10mi
Dew Point: 57° Wind: 13mph
Humidity: 90% Direction: 150° (SSE)
Pressure: 29.96in Gusts: 0mph
Raw Report DataKDAL 201553Z 15011KT 10SM OVC008 16/14 A2996 RMK AO2 SLP142 T01560139 $
Traffic Incident Summary
Active as of:
Severity:
Category:
InformationThere was an issue retrieving the traffic information for this location. Please try a different location or try again shortly.
Advertisements
Track Severe Weather on mobile